sensor_id;sensor_type;location;lat;lon;timestamp;P1;durP1;ratioP1;P2;durP2;ratioP2
13891;SDS011;7016;48.172;8.058;2023-05-07T00:00:02;9.57;;;2.50;;
13891;SDS011;7016;48.172;8.058;2023-05-07T00:02:34;7.88;;;2.83;;
13891;SDS011;7016;48.172;8.058;2023-05-07T00:05:00;6.38;;;2.60;;
13891;SDS011;7016;48.172;8.058;2023-05-07T00:07:27;7.40;;;2.50;;
13891;SDS011;7016;48.172;8.058;2023-05-07T00:09:53;6.15;;;2.72;;
13891;SDS011;7016;48.172;8.058;2023-05-07T00:12:18;9.52;;;3.65;;
13891;SDS011;7016;48.172;8.058;2023-05-07T00:14:44;5.63;;;2.42;;
13891;SDS011;7016;48.172;8.058;2023-05-07T00:17:10;6.75;;;2.60;;
13891;SDS011;7016;48.172;8.058;2023-05-07T00:19:36;9.63;;;3.30;;
13891;SDS011;7016;48.172;8.058;2023-05-07T00:22:01;6.97;;;2.92;;
13891;SDS011;7016;48.172;8.058;2023-05-07T00:24:27;7.03;;;2.55;;
13891;SDS011;7016;48.172;8.058;2023-05-07T00:26:53;7.95;;;2.20;;
13891;SDS011;7016;48.172;8.058;2023-05-07T00:29:18;3.97;;;2.20;;
13891;SDS011;7016;48.172;8.058;2023-05-07T00:31:44;3.80;;;2.45;;
13891;SDS011;7016;48.172;8.058;2023-05-07T00:34:10;6.45;;;2.53;;
13891;SDS011;7016;48.172;8.058;2023-05-07T00:36:35;6.85;;;3.00;;
13891;SDS011;7016;48.172;8.058;2023-05-07T00:39:01;8.30;;;2.90;;
13891;SDS011;7016;48.172;8.058;2023-05-07T00:41:28;5.63;;;3.05;;
13891;SDS011;7016;48.172;8.058;2023-05-07T00:43:55;7.07;;;3.33;;
13891;SDS011;7016;48.172;8.058;2023-05-07T00:46:21;11.60;;;4.35;;
13891;SDS011;7016;48.172;8.058;2023-05-07T00:48:49;11.00;;;4.32;;
13891;SDS011;7016;48.172;8.058;2023-05-07T00:51:16;13.98;;;4.57;;
13891;SDS011;7016;48.172;8.058;2023-05-07T00:53:43;8.77;;;3.08;;
13891;SDS011;7016;48.172;8.058;2023-05-07T00:56:09;8.90;;;3.75;;
13891;SDS011;7016;48.172;8.058;2023-05-07T00:58:36;8.40;;;3.90;;
13891;SDS011;7016;48.172;8.058;2023-05-07T01:01:02;11.77;;;4.78;;
13891;SDS011;7016;48.172;8.058;2023-05-07T01:03:28;13.98;;;4.40;;
13891;SDS011;7016;48.172;8.058;2023-05-07T01:05:54;9.82;;;3.45;;
13891;SDS011;7016;48.172;8.058;2023-05-07T01:08:23;7.35;;;3.30;;
13891;SDS011;7016;48.172;8.058;2023-05-07T01:10:51;5.63;;;3.20;;
13891;SDS011;7016;48.172;8.058;2023-05-07T01:13:18;6.63;;;3.42;;
13891;SDS011;7016;48.172;8.058;2023-05-07T01:15:45;6.03;;;2.70;;
13891;SDS011;7016;48.172;8.058;2023-05-07T01:18:11;8.00;;;2.50;;
13891;SDS011;7016;48.172;8.058;2023-05-07T01:20:37;11.00;;;3.85;;
13891;SDS011;7016;48.172;8.058;2023-05-07T01:23:03;6.43;;;3.40;;
13891;SDS011;7016;48.172;8.058;2023-05-07T01:25:29;11.85;;;3.33;;
13891;SDS011;7016;48.172;8.058;2023-05-07T01:27:55;9.30;;;3.45;;
13891;SDS011;7016;48.172;8.058;2023-05-07T01:30:21;3.58;;;2.55;;
13891;SDS011;7016;48.172;8.058;2023-05-07T01:32:57;5.57;;;2.90;;
13891;SDS011;7016;48.172;8.058;2023-05-07T01:35:29;6.22;;;2.67;;
13891;SDS011;7016;48.172;8.058;2023-05-07T01:37:58;6.38;;;2.72;;
13891;SDS011;7016;48.172;8.058;2023-05-07T01:40:25;10.60;;;3.30;;
13891;SDS011;7016;48.172;8.058;2023-05-07T01:42:52;7.18;;;3.40;;
13891;SDS011;7016;48.172;8.058;2023-05-07T01:45:19;9.73;;;4.25;;
13891;SDS011;7016;48.172;8.058;2023-05-07T01:47:45;5.38;;;3.25;;
13891;SDS011;7016;48.172;8.058;2023-05-07T01:50:11;7.03;;;2.47;;
13891;SDS011;7016;48.172;8.058;2023-05-07T01:52:37;5.30;;;2.35;;
13891;SDS011;7016;48.172;8.058;2023-05-07T01:55:04;6.35;;;2.42;;
13891;SDS011;7016;48.172;8.058;2023-05-07T01:57:30;6.70;;;2.83;;
13891;SDS011;7016;48.172;8.058;2023-05-07T01:59:56;5.35;;;2.80;;
13891;SDS011;7016;48.172;8.058;2023-05-07T02:02:21;5.10;;;2.38;;
13891;SDS011;7016;48.172;8.058;2023-05-07T02:04:47;5.88;;;2.55;;
13891;SDS011;7016;48.172;8.058;2023-05-07T02:07:13;8.85;;;2.70;;
13891;SDS011;7016;48.172;8.058;2023-05-07T02:09:38;5.60;;;3.05;;
13891;SDS011;7016;48.172;8.058;2023-05-07T02:12:04;8.02;;;2.53;;
13891;SDS011;7016;48.172;8.058;2023-05-07T02:14:30;8.00;;;3.35;;
13891;SDS011;7016;48.172;8.058;2023-05-07T02:16:55;7.47;;;2.78;;
13891;SDS011;7016;48.172;8.058;2023-05-07T02:19:21;4.32;;;2.60;;
13891;SDS011;7016;48.172;8.058;2023-05-07T02:21:47;7.05;;;2.60;;
13891;SDS011;7016;48.172;8.058;2023-05-07T02:24:13;9.90;;;3.00;;
13891;SDS011;7016;48.172;8.058;2023-05-07T02:26:42;6.63;;;2.60;;
13891;SDS011;7016;48.172;8.058;2023-05-07T02:29:07;4.18;;;2.50;;
13891;SDS011;7016;48.172;8.058;2023-05-07T02:31:33;3.40;;;2.20;;
13891;SDS011;7016;48.172;8.058;2023-05-07T02:33:59;4.47;;;2.13;;
13891;SDS011;7016;48.172;8.058;2023-05-07T02:36:25;4.38;;;2.22;;
13891;SDS011;7016;48.172;8.058;2023-05-07T02:38:51;7.40;;;2.53;;
13891;SDS011;7016;48.172;8.058;2023-05-07T02:41:17;5.57;;;2.60;;
13891;SDS011;7016;48.172;8.058;2023-05-07T02:43:43;5.22;;;2.65;;
13891;SDS011;7016;48.172;8.058;2023-05-07T02:46:09;10.88;;;3.38;;
13891;SDS011;7016;48.172;8.058;2023-05-07T02:48:35;7.72;;;3.42;;
13891;SDS011;7016;48.172;8.058;2023-05-07T02:51:01;8.88;;;3.03;;
13891;SDS011;7016;48.172;8.058;2023-05-07T02:53:28;9.02;;;3.22;;
13891;SDS011;7016;48.172;8.058;2023-05-07T02:55:57;6.57;;;3.30;;
13891;SDS011;7016;48.172;8.058;2023-05-07T02:58:24;5.88;;;2.90;;
13891;SDS011;7016;48.172;8.058;2023-05-07T03:00:50;6.40;;;3.10;;
13891;SDS011;7016;48.172;8.058;2023-05-07T03:03:15;6.57;;;3.25;;
13891;SDS011;7016;48.172;8.058;2023-05-07T03:05:42;8.05;;;3.63;;
13891;SDS011;7016;48.172;8.058;2023-05-07T03:08:08;8.27;;;4.35;;
13891;SDS011;7016;48.172;8.058;2023-05-07T03:10:34;7.57;;;3.97;;
13891;SDS011;7016;48.172;8.058;2023-05-07T03:13:01;7.20;;;3.58;;
13891;SDS011;7016;48.172;8.058;2023-05-07T03:15:26;6.55;;;3.30;;
13891;SDS011;7016;48.172;8.058;2023-05-07T03:17:52;7.32;;;3.47;;
13891;SDS011;7016;48.172;8.058;2023-05-07T03:20:18;8.82;;;3.10;;
13891;SDS011;7016;48.172;8.058;2023-05-07T03:22:43;5.85;;;3.15;;
13891;SDS011;7016;48.172;8.058;2023-05-07T03:25:09;4.68;;;2.78;;
13891;SDS011;7016;48.172;8.058;2023-05-07T03:27:35;6.82;;;3.20;;
13891;SDS011;7016;48.172;8.058;2023-05-07T03:30:01;4.28;;;2.45;;
13891;SDS011;7016;48.172;8.058;2023-05-07T03:32:27;3.72;;;2.50;;
13891;SDS011;7016;48.172;8.058;2023-05-07T03:34:53;5.85;;;3.50;;
13891;SDS011;7016;48.172;8.058;2023-05-07T03:37:19;9.23;;;4.47;;
13891;SDS011;7016;48.172;8.058;2023-05-07T03:39:44;10.80;;;5.30;;
13891;SDS011;7016;48.172;8.058;2023-05-07T03:42:10;11.98;;;4.35;;
13891;SDS011;7016;48.172;8.058;2023-05-07T03:44:36;4.65;;;2.90;;
13891;SDS011;7016;48.172;8.058;2023-05-07T03:47:02;4.47;;;2.80;;
13891;SDS011;7016;48.172;8.058;2023-05-07T03:49:28;8.25;;;2.90;;
13891;SDS011;7016;48.172;8.058;2023-05-07T03:51:53;5.22;;;2.80;;
13891;SDS011;7016;48.172;8.058;2023-05-07T03:54:19;8.52;;;3.13;;
13891;SDS011;7016;48.172;8.058;2023-05-07T03:56:45;5.55;;;3.05;;
13891;SDS011;7016;48.172;8.058;2023-05-07T03:59:11;9.23;;;4.45;;
13891;SDS011;7016;48.172;8.058;2023-05-07T04:01:40;19.92;;;8.93;;
13891;SDS011;7016;48.172;8.058;2023-05-07T04:04:05;13.18;;;5.45;;
13891;SDS011;7016;48.172;8.058;2023-05-07T04:06:31;8.93;;;4.22;;
13891;SDS011;7016;48.172;8.058;2023-05-07T04:08:57;8.77;;;3.50;;
13891;SDS011;7016;48.172;8.058;2023-05-07T04:11:22;5.50;;;3.25;;
13891;SDS011;7016;48.172;8.058;2023-05-07T04:13:48;8.95;;;3.17;;
13891;SDS011;7016;48.172;8.058;2023-05-07T04:16:14;7.28;;;2.97;;
13891;SDS011;7016;48.172;8.058;2023-05-07T04:18:40;7.78;;;3.67;;
13891;SDS011;7016;48.172;8.058;2023-05-07T04:21:13;7.93;;;3.63;;
13891;SDS011;7016;48.172;8.058;2023-05-07T04:23:43;8.07;;;3.10;;
13891;SDS011;7016;48.172;8.058;2023-05-07T04:26:09;7.85;;;3.40;;
13891;SDS011;7016;48.172;8.058;2023-05-07T04:28:35;5.63;;;3.00;;
13891;SDS011;7016;48.172;8.058;2023-05-07T04:31:01;4.78;;;2.90;;
13891;SDS011;7016;48.172;8.058;2023-05-07T04:33:27;6.07;;;3.03;;
13891;SDS011;7016;48.172;8.058;2023-05-07T04:35:52;8.65;;;3.78;;
13891;SDS011;7016;48.172;8.058;2023-05-07T04:38:18;13.32;;;4.30;;
13891;SDS011;7016;48.172;8.058;2023-05-07T04:40:44;6.60;;;3.35;;
13891;SDS011;7016;48.172;8.058;2023-05-07T04:43:10;6.22;;;3.58;;
13891;SDS011;7016;48.172;8.058;2023-05-07T04:45:36;5.30;;;3.38;;
13891;SDS011;7016;48.172;8.058;2023-05-07T04:48:02;6.28;;;2.90;;
13891;SDS011;7016;48.172;8.058;2023-05-07T04:50:28;5.00;;;3.17;;
13891;SDS011;7016;48.172;8.058;2023-05-07T04:52:53;8.15;;;3.85;;
13891;SDS011;7016;48.172;8.058;2023-05-07T04:55:19;8.07;;;3.60;;
13891;SDS011;7016;48.172;8.058;2023-05-07T04:57:45;10.50;;;4.57;;
13891;SDS011;7016;48.172;8.058;2023-05-07T05:00:11;9.75;;;3.95;;
13891;SDS011;7016;48.172;8.058;2023-05-07T05:02:39;7.20;;;3.70;;
13891;SDS011;7016;48.172;8.058;2023-05-07T05:05:06;6.28;;;4.00;;
13891;SDS011;7016;48.172;8.058;2023-05-07T05:07:32;9.00;;;3.85;;
13891;SDS011;7016;48.172;8.058;2023-05-07T05:09:58;9.25;;;3.75;;
13891;SDS011;7016;48.172;8.058;2023-05-07T05:12:24;6.40;;;3.50;;
13891;SDS011;7016;48.172;8.058;2023-05-07T05:14:49;6.05;;;3.40;;
13891;SDS011;7016;48.172;8.058;2023-05-07T05:17:15;5.68;;;3.58;;
13891;SDS011;7016;48.172;8.058;2023-05-07T05:19:41;8.05;;;3.30;;
13891;SDS011;7016;48.172;8.058;2023-05-07T05:22:06;7.40;;;3.60;;
13891;SDS011;7016;48.172;8.058;2023-05-07T05:24:32;6.80;;;3.20;;
13891;SDS011;7016;48.172;8.058;2023-05-07T05:26:58;5.90;;;3.33;;
13891;SDS011;7016;48.172;8.058;2023-05-07T05:29:26;7.50;;;3.30;;
13891;SDS011;7016;48.172;8.058;2023-05-07T05:31:52;5.07;;;3.10;;
13891;SDS011;7016;48.172;8.058;2023-05-07T05:34:17;10.10;;;3.53;;
13891;SDS011;7016;48.172;8.058;2023-05-07T05:36:44;14.25;;;6.18;;
13891;SDS011;7016;48.172;8.058;2023-05-07T05:39:10;8.55;;;4.50;;
13891;SDS011;7016;48.172;8.058;2023-05-07T05:41:36;19.23;;;8.23;;
13891;SDS011;7016;48.172;8.058;2023-05-07T05:44:02;17.10;;;7.00;;
13891;SDS011;7016;48.172;8.058;2023-05-07T05:46:27;13.43;;;7.15;;
13891;SDS011;7016;48.172;8.058;2023-05-07T05:48:53;10.43;;;4.90;;
13891;SDS011;7016;48.172;8.058;2023-05-07T05:51:20;24.88;;;10.02;;
13891;SDS011;7016;48.172;8.058;2023-05-07T05:53:46;74.07;;;28.98;;
13891;SDS011;7016;48.172;8.058;2023-05-07T05:56:11;25.48;;;10.93;;
13891;SDS011;7016;48.172;8.058;2023-05-07T05:58:37;22.08;;;9.23;;
13891;SDS011;7016;48.172;8.058;2023-05-07T06:01:03;31.55;;;13.63;;
13891;SDS011;7016;48.172;8.058;2023-05-07T06:03:30;29.67;;;12.75;;
13891;SDS011;7016;48.172;8.058;2023-05-07T06:05:57;19.33;;;7.97;;
13891;SDS011;7016;48.172;8.058;2023-05-07T06:08:23;25.88;;;11.18;;
13891;SDS011;7016;48.172;8.058;2023-05-07T06:10:49;13.95;;;7.32;;
13891;SDS011;7016;48.172;8.058;2023-05-07T06:13:15;14.98;;;6.82;;
13891;SDS011;7016;48.172;8.058;2023-05-07T06:15:40;11.65;;;5.35;;
13891;SDS011;7016;48.172;8.058;2023-05-07T06:18:06;7.68;;;4.35;;
13891;SDS011;7016;48.172;8.058;2023-05-07T06:20:32;5.38;;;4.07;;
13891;SDS011;7016;48.172;8.058;2023-05-07T06:22:57;6.70;;;3.95;;
13891;SDS011;7016;48.172;8.058;2023-05-07T06:25:23;9.30;;;4.90;;
13891;SDS011;7016;48.172;8.058;2023-05-07T06:27:49;7.63;;;3.67;;
13891;SDS011;7016;48.172;8.058;2023-05-07T06:30:14;6.82;;;4.00;;
13891;SDS011;7016;48.172;8.058;2023-05-07T06:32:40;35.28;;;14.05;;
13891;SDS011;7016;48.172;8.058;2023-05-07T06:35:06;51.25;;;18.10;;
13891;SDS011;7016;48.172;8.058;2023-05-07T06:37:32;25.77;;;12.05;;
13891;SDS011;7016;48.172;8.058;2023-05-07T06:39:58;22.40;;;9.45;;
13891;SDS011;7016;48.172;8.058;2023-05-07T06:42:24;15.77;;;7.35;;
13891;SDS011;7016;48.172;8.058;2023-05-07T06:44:49;14.40;;;6.95;;
13891;SDS011;7016;48.172;8.058;2023-05-07T06:47:15;10.05;;;5.60;;
13891;SDS011;7016;48.172;8.058;2023-05-07T06:49:41;9.75;;;5.13;;
13891;SDS011;7016;48.172;8.058;2023-05-07T06:52:06;12.48;;;5.03;;
13891;SDS011;7016;48.172;8.058;2023-05-07T06:54:32;6.53;;;3.80;;
13891;SDS011;7016;48.172;8.058;2023-05-07T06:56:58;7.50;;;3.70;;
13891;SDS011;7016;48.172;8.058;2023-05-07T06:59:23;10.75;;;3.60;;
13891;SDS011;7016;48.172;8.058;2023-05-07T07:01:49;9.07;;;3.15;;
13891;SDS011;7016;48.172;8.058;2023-05-07T07:04:15;5.85;;;3.63;;
13891;SDS011;7016;48.172;8.058;2023-05-07T07:06:40;7.57;;;3.40;;
13891;SDS011;7016;48.172;8.058;2023-05-07T07:09:06;11.02;;;3.30;;
13891;SDS011;7016;48.172;8.058;2023-05-07T07:11:32;7.97;;;3.55;;
13891;SDS011;7016;48.172;8.058;2023-05-07T07:13:58;5.72;;;2.88;;
13891;SDS011;7016;48.172;8.058;2023-05-07T07:16:24;7.28;;;3.20;;
13891;SDS011;7016;48.172;8.058;2023-05-07T07:18:50;6.97;;;2.85;;
13891;SDS011;7016;48.172;8.058;2023-05-07T07:21:16;7.43;;;3.38;;
13891;SDS011;7016;48.172;8.058;2023-05-07T07:23:42;10.27;;;3.08;;
13891;SDS011;7016;48.172;8.058;2023-05-07T07:26:07;6.28;;;3.20;;
13891;SDS011;7016;48.172;8.058;2023-05-07T07:28:33;5.20;;;3.03;;
13891;SDS011;7016;48.172;8.058;2023-05-07T07:30:59;8.70;;;3.30;;
13891;SDS011;7016;48.172;8.058;2023-05-07T07:33:25;7.63;;;3.25;;
13891;SDS011;7016;48.172;8.058;2023-05-07T07:35:50;6.78;;;3.03;;
13891;SDS011;7016;48.172;8.058;2023-05-07T07:38:16;12.23;;;3.72;;
13891;SDS011;7016;48.172;8.058;2023-05-07T07:40:42;9.98;;;3.13;;
13891;SDS011;7016;48.172;8.058;2023-05-07T07:43:08;3.35;;;2.70;;
13891;SDS011;7016;48.172;8.058;2023-05-07T07:45:34;7.53;;;3.40;;
13891;SDS011;7016;48.172;8.058;2023-05-07T07:48:00;7.10;;;2.60;;
13891;SDS011;7016;48.172;8.058;2023-05-07T07:50:26;8.95;;;3.38;;
13891;SDS011;7016;48.172;8.058;2023-05-07T07:52:52;4.82;;;3.00;;
13891;SDS011;7016;48.172;8.058;2023-05-07T07:55:19;4.28;;;3.22;;
13891;SDS011;7016;48.172;8.058;2023-05-07T07:57:47;6.57;;;3.00;;
13891;SDS011;7016;48.172;8.058;2023-05-07T08:00:14;10.38;;;3.53;;
13891;SDS011;7016;48.172;8.058;2023-05-07T08:02:40;5.90;;;3.13;;
13891;SDS011;7016;48.172;8.058;2023-05-07T08:05:06;4.82;;;2.97;;
13891;SDS011;7016;48.172;8.058;2023-05-07T08:07:32;7.72;;;3.20;;
13891;SDS011;7016;48.172;8.058;2023-05-07T08:09:58;8.18;;;3.13;;
13891;SDS011;7016;48.172;8.058;2023-05-07T08:12:23;10.63;;;3.30;;
13891;SDS011;7016;48.172;8.058;2023-05-07T08:14:49;5.97;;;3.13;;
13891;SDS011;7016;48.172;8.058;2023-05-07T08:17:15;4.88;;;2.90;;
13891;SDS011;7016;48.172;8.058;2023-05-07T08:19:41;4.75;;;2.88;;
13891;SDS011;7016;48.172;8.058;2023-05-07T08:22:08;4.80;;;2.83;;
13891;SDS011;7016;48.172;8.058;2023-05-07T08:24:34;8.52;;;3.50;;
13891;SDS011;7016;48.172;8.058;2023-05-07T08:27:00;3.33;;;2.53;;
13891;SDS011;7016;48.172;8.058;2023-05-07T08:29:26;6.43;;;2.30;;
13891;SDS011;7016;48.172;8.058;2023-05-07T08:31:52;4.28;;;2.00;;
13891;SDS011;7016;48.172;8.058;2023-05-07T08:34:17;5.28;;;2.15;;
13891;SDS011;7016;48.172;8.058;2023-05-07T08:36:43;3.95;;;2.22;;
13891;SDS011;7016;48.172;8.058;2023-05-07T08:39:11;3.08;;;2.22;;
13891;SDS011;7016;48.172;8.058;2023-05-07T08:41:37;5.97;;;2.25;;
13891;SDS011;7016;48.172;8.058;2023-05-07T08:44:03;4.28;;;2.47;;
13891;SDS011;7016;48.172;8.058;2023-05-07T08:46:36;5.93;;;2.55;;
13891;SDS011;7016;48.172;8.058;2023-05-07T08:49:02;6.43;;;2.42;;
13891;SDS011;7016;48.172;8.058;2023-05-07T08:51:28;4.43;;;2.55;;
13891;SDS011;7016;48.172;8.058;2023-05-07T08:53:54;6.97;;;2.80;;
13891;SDS011;7016;48.172;8.058;2023-05-07T08:56:20;4.38;;;2.28;;
13891;SDS011;7016;48.172;8.058;2023-05-07T08:58:46;3.90;;;2.35;;
13891;SDS011;7016;48.172;8.058;2023-05-07T09:01:13;6.80;;;2.33;;
13891;SDS011;7016;48.172;8.058;2023-05-07T09:03:39;4.43;;;2.50;;
13891;SDS011;7016;48.172;8.058;2023-05-07T09:06:06;3.90;;;2.45;;
13891;SDS011;7016;48.172;8.058;2023-05-07T09:08:32;4.32;;;2.35;;
13891;SDS011;7016;48.172;8.058;2023-05-07T09:10:59;6.13;;;2.55;;
13891;SDS011;7016;48.172;8.058;2023-05-07T09:13:25;4.90;;;2.38;;
13891;SDS011;7016;48.172;8.058;2023-05-07T09:16:02;8.32;;;2.90;;
13891;SDS011;7016;48.172;8.058;2023-05-07T09:18:42;4.75;;;2.25;;
13891;SDS011;7016;48.172;8.058;2023-05-07T09:21:15;5.35;;;2.53;;
13891;SDS011;7016;48.172;8.058;2023-05-07T09:23:41;7.28;;;2.70;;
13891;SDS011;7016;48.172;8.058;2023-05-07T09:26:07;6.20;;;2.38;;
13891;SDS011;7016;48.172;8.058;2023-05-07T09:28:43;4.43;;;2.30;;
13891;SDS011;7016;48.172;8.058;2023-05-07T09:31:09;11.45;;;4.80;;
13891;SDS011;7016;48.172;8.058;2023-05-07T09:33:36;6.60;;;2.92;;
13891;SDS011;7016;48.172;8.058;2023-05-07T09:36:06;4.00;;;2.50;;
13891;SDS011;7016;48.172;8.058;2023-05-07T09:38:33;4.85;;;2.53;;
13891;SDS011;7016;48.172;8.058;2023-05-07T09:43:32;5.95;;;2.55;;
13891;SDS011;7016;48.172;8.058;2023-05-07T09:46:02;8.48;;;2.35;;
13891;SDS011;7016;48.172;8.058;2023-05-07T09:48:39;6.85;;;2.42;;
13891;SDS011;7016;48.172;8.058;2023-05-07T09:51:09;6.75;;;2.30;;
13891;SDS011;7016;48.172;8.058;2023-05-07T09:53:43;5.13;;;2.20;;
13891;SDS011;7016;48.172;8.058;2023-05-07T09:56:11;5.72;;;2.60;;
13891;SDS011;7016;48.172;8.058;2023-05-07T09:58:38;4.22;;;2.45;;
13891;SDS011;7016;48.172;8.058;2023-05-07T10:01:06;4.55;;;2.30;;
13891;SDS011;7016;48.172;8.058;2023-05-07T10:03:32;9.50;;;2.83;;
13891;SDS011;7016;48.172;8.058;2023-05-07T10:06:00;5.90;;;2.90;;
13891;SDS011;7016;48.172;8.058;2023-05-07T10:08:26;5.93;;;2.95;;
13891;SDS011;7016;48.172;8.058;2023-05-07T10:10:52;6.10;;;2.42;;
13891;SDS011;7016;48.172;8.058;2023-05-07T10:13:21;4.32;;;2.45;;
13891;SDS011;7016;48.172;8.058;2023-05-07T10:15:47;8.25;;;2.83;;
13891;SDS011;7016;48.172;8.058;2023-05-07T10:18:14;4.97;;;2.70;;
13891;SDS011;7016;48.172;8.058;2023-05-07T10:20:41;5.68;;;2.60;;
13891;SDS011;7016;48.172;8.058;2023-05-07T10:23:12;3.78;;;2.63;;
13891;SDS011;7016;48.172;8.058;2023-05-07T10:25:39;6.18;;;3.08;;
13891;SDS011;7016;48.172;8.058;2023-05-07T10:28:07;8.65;;;3.55;;
13891;SDS011;7016;48.172;8.058;2023-05-07T10:33:22;5.40;;;3.60;;
13891;SDS011;7016;48.172;8.058;2023-05-07T10:35:54;7.53;;;4.18;;
13891;SDS011;7016;48.172;8.058;2023-05-07T10:38:29;8.27;;;4.10;;
13891;SDS011;7016;48.172;8.058;2023-05-07T10:40:55;6.10;;;4.80;;
13891;SDS011;7016;48.172;8.058;2023-05-07T10:43:21;7.68;;;4.47;;
13891;SDS011;7016;48.172;8.058;2023-05-07T10:49:25;9.18;;;4.30;;
13891;SDS011;7016;48.172;8.058;2023-05-07T10:51:26;10.80;;;4.30;;
13891;SDS011;7016;48.172;8.058;2023-05-07T11:01:49;8.50;;;4.30;;
13891;SDS011;7016;48.172;8.058;2023-05-07T11:04:19;13.90;;;4.68;;
13891;SDS011;7016;48.172;8.058;2023-05-07T11:17:51;6.47;;;3.90;;
13891;SDS011;7016;48.172;8.058;2023-05-07T11:20:27;6.60;;;3.67;;
13891;SDS011;7016;48.172;8.058;2023-05-07T11:26:07;8.68;;;4.10;;
13891;SDS011;7016;48.172;8.058;2023-05-07T11:28:37;10.13;;;3.67;;
13891;SDS011;7016;48.172;8.058;2023-05-07T11:31:04;7.40;;;4.28;;
13891;SDS011;7016;48.172;8.058;2023-05-07T11:33:30;10.57;;;4.50;;
13891;SDS011;7016;48.172;8.058;2023-05-07T11:35:57;7.00;;;4.57;;
13891;SDS011;7016;48.172;8.058;2023-05-07T11:38:24;5.82;;;3.97;;
13891;SDS011;7016;48.172;8.058;2023-05-07T11:40:51;8.75;;;4.75;;
13891;SDS011;7016;48.172;8.058;2023-05-07T11:43:18;9.85;;;4.40;;
13891;SDS011;7016;48.172;8.058;2023-05-07T11:45:44;12.18;;;4.18;;
13891;SDS011;7016;48.172;8.058;2023-05-07T11:48:12;7.53;;;5.03;;
13891;SDS011;7016;48.172;8.058;2023-05-07T11:53:17;6.35;;;4.20;;
13891;SDS011;7016;48.172;8.058;2023-05-07T11:55:44;7.05;;;4.70;;
13891;SDS011;7016;48.172;8.058;2023-05-07T11:58:11;7.90;;;4.35;;
13891;SDS011;7016;48.172;8.058;2023-05-07T12:00:38;8.32;;;4.85;;
13891;SDS011;7016;48.172;8.058;2023-05-07T12:03:04;8.27;;;4.90;;
13891;SDS011;7016;48.172;8.058;2023-05-07T12:05:30;10.88;;;5.20;;
13891;SDS011;7016;48.172;8.058;2023-05-07T12:07:56;12.00;;;5.32;;
13891;SDS011;7016;48.172;8.058;2023-05-07T12:10:22;7.13;;;4.93;;
13891;SDS011;7016;48.172;8.058;2023-05-07T12:12:50;5.70;;;4.47;;
13891;SDS011;7016;48.172;8.058;2023-05-07T12:15:22;7.90;;;4.22;;
13891;SDS011;7016;48.172;8.058;2023-05-07T12:17:48;9.32;;;4.57;;
13891;SDS011;7016;48.172;8.058;2023-05-07T12:20:14;9.00;;;4.97;;
13891;SDS011;7016;48.172;8.058;2023-05-07T12:22:40;8.27;;;4.72;;
13891;SDS011;7016;48.172;8.058;2023-05-07T12:25:06;7.45;;;4.78;;
13891;SDS011;7016;48.172;8.058;2023-05-07T12:27:32;11.30;;;4.90;;
13891;SDS011;7016;48.172;8.058;2023-05-07T12:30:02;6.30;;;4.35;;
13891;SDS011;7016;48.172;8.058;2023-05-07T12:32:28;7.20;;;4.68;;
13891;SDS011;7016;48.172;8.058;2023-05-07T12:34:54;9.60;;;4.78;;
13891;SDS011;7016;48.172;8.058;2023-05-07T12:37:24;6.68;;;4.10;;
13891;SDS011;7016;48.172;8.058;2023-05-07T12:40:06;8.68;;;4.00;;
13891;SDS011;7016;48.172;8.058;2023-05-07T12:42:39;8.40;;;3.60;;
13891;SDS011;7016;48.172;8.058;2023-05-07T12:45:41;6.85;;;3.60;;
13891;SDS011;7016;48.172;8.058;2023-05-07T12:48:02;6.82;;;3.70;;
13891;SDS011;7016;48.172;8.058;2023-05-07T12:50:30;8.52;;;3.70;;
13891;SDS011;7016;48.172;8.058;2023-05-07T12:52:58;7.75;;;3.50;;
13891;SDS011;7016;48.172;8.058;2023-05-07T12:55:24;9.90;;;4.20;;
13891;SDS011;7016;48.172;8.058;2023-05-07T12:57:50;10.02;;;3.58;;
13891;SDS011;7016;48.172;8.058;2023-05-07T13:00:18;5.43;;;3.50;;
13891;SDS011;7016;48.172;8.058;2023-05-07T13:02:58;7.18;;;3.47;;
13891;SDS011;7016;48.172;8.058;2023-05-07T13:05:25;6.32;;;4.00;;
13891;SDS011;7016;48.172;8.058;2023-05-07T13:07:52;6.97;;;3.97;;
13891;SDS011;7016;48.172;8.058;2023-05-07T13:10:20;4.85;;;3.30;;
13891;SDS011;7016;48.172;8.058;2023-05-07T13:12:46;8.18;;;3.92;;
13891;SDS011;7016;48.172;8.058;2023-05-07T13:15:12;6.32;;;3.75;;
13891;SDS011;7016;48.172;8.058;2023-05-07T13:17:37;6.22;;;3.97;;
13891;SDS011;7016;48.172;8.058;2023-05-07T13:20:03;6.65;;;3.20;;
13891;SDS011;7016;48.172;8.058;2023-05-07T13:22:30;8.32;;;3.70;;
13891;SDS011;7016;48.172;8.058;2023-05-07T13:24:56;5.10;;;3.30;;
13891;SDS011;7016;48.172;8.058;2023-05-07T13:27:22;4.90;;;3.10;;
13891;SDS011;7016;48.172;8.058;2023-05-07T13:29:48;4.68;;;3.00;;
13891;SDS011;7016;48.172;8.058;2023-05-07T13:32:13;4.75;;;3.17;;
13891;SDS011;7016;48.172;8.058;2023-05-07T13:34:39;6.90;;;3.50;;
13891;SDS011;7016;48.172;8.058;2023-05-07T13:37:05;6.95;;;3.22;;
13891;SDS011;7016;48.172;8.058;2023-05-07T13:39:32;9.00;;;3.10;;
13891;SDS011;7016;48.172;8.058;2023-05-07T13:41:58;6.35;;;3.20;;
13891;SDS011;7016;48.172;8.058;2023-05-07T13:44:24;6.57;;;3.15;;
13891;SDS011;7016;48.172;8.058;2023-05-07T13:46:50;4.13;;;2.70;;
13891;SDS011;7016;48.172;8.058;2023-05-07T13:49:16;5.72;;;3.03;;
13891;SDS011;7016;48.172;8.058;2023-05-07T13:51:42;7.35;;;3.13;;
13891;SDS011;7016;48.172;8.058;2023-05-07T13:54:08;4.53;;;2.58;;
13891;SDS011;7016;48.172;8.058;2023-05-07T13:56:33;5.50;;;3.10;;
13891;SDS011;7016;48.172;8.058;2023-05-07T13:58:59;6.13;;;3.42;;
13891;SDS011;7016;48.172;8.058;2023-05-07T14:01:25;5.47;;;3.33;;
13891;SDS011;7016;48.172;8.058;2023-05-07T14:03:51;9.93;;;3.42;;
13891;SDS011;7016;48.172;8.058;2023-05-07T14:06:16;7.82;;;3.42;;
13891;SDS011;7016;48.172;8.058;2023-05-07T14:08:42;6.13;;;3.35;;
13891;SDS011;7016;48.172;8.058;2023-05-07T14:11:07;5.22;;;3.10;;
13891;SDS011;7016;48.172;8.058;2023-05-07T14:13:33;5.47;;;3.50;;
13891;SDS011;7016;48.172;8.058;2023-05-07T14:15:59;5.88;;;3.15;;
13891;SDS011;7016;48.172;8.058;2023-05-07T14:18:25;6.93;;;3.30;;
13891;SDS011;7016;48.172;8.058;2023-05-07T14:20:51;5.15;;;3.35;;
13891;SDS011;7016;48.172;8.058;2023-05-07T14:23:19;7.03;;;3.30;;
13891;SDS011;7016;48.172;8.058;2023-05-07T14:25:47;6.43;;;3.25;;
13891;SDS011;7016;48.172;8.058;2023-05-07T14:28:12;3.65;;;2.88;;
13891;SDS011;7016;48.172;8.058;2023-05-07T14:30:38;6.20;;;3.67;;
13891;SDS011;7016;48.172;8.058;2023-05-07T14:33:04;5.50;;;3.35;;
13891;SDS011;7016;48.172;8.058;2023-05-07T14:35:31;7.28;;;3.60;;
13891;SDS011;7016;48.172;8.058;2023-05-07T14:37:56;4.18;;;3.25;;
13891;SDS011;7016;48.172;8.058;2023-05-07T14:40:22;6.70;;;3.70;;
13891;SDS011;7016;48.172;8.058;2023-05-07T14:42:48;6.85;;;3.45;;
13891;SDS011;7016;48.172;8.058;2023-05-07T14:45:13;6.88;;;3.15;;
13891;SDS011;7016;48.172;8.058;2023-05-07T14:47:39;4.72;;;3.22;;
13891;SDS011;7016;48.172;8.058;2023-05-07T14:50:05;6.50;;;3.78;;
13891;SDS011;7016;48.172;8.058;2023-05-07T14:52:31;3.83;;;2.85;;
13891;SDS011;7016;48.172;8.058;2023-05-07T14:54:56;7.93;;;3.38;;
13891;SDS011;7016;48.172;8.058;2023-05-07T14:57:22;4.78;;;3.00;;
13891;SDS011;7016;48.172;8.058;2023-05-07T14:59:48;6.03;;;2.80;;
13891;SDS011;7016;48.172;8.058;2023-05-07T15:02:14;5.80;;;3.25;;
13891;SDS011;7016;48.172;8.058;2023-05-07T15:04:40;4.03;;;2.58;;
13891;SDS011;7016;48.172;8.058;2023-05-07T15:07:13;4.72;;;2.80;;
13891;SDS011;7016;48.172;8.058;2023-05-07T15:09:40;5.25;;;2.97;;
13891;SDS011;7016;48.172;8.058;2023-05-07T15:12:07;5.10;;;3.00;;
13891;SDS011;7016;48.172;8.058;2023-05-07T15:14:32;8.40;;;3.13;;
13891;SDS011;7016;48.172;8.058;2023-05-07T15:16:58;8.68;;;3.15;;
13891;SDS011;7016;48.172;8.058;2023-05-07T15:19:24;6.45;;;3.17;;
13891;SDS011;7016;48.172;8.058;2023-05-07T15:21:54;8.32;;;3.10;;
13891;SDS011;7016;48.172;8.058;2023-05-07T15:24:22;7.38;;;3.00;;
13891;SDS011;7016;48.172;8.058;2023-05-07T15:26:47;5.38;;;2.78;;